Henrique Nardo

Olheiro-Chefe - Bragantino
4 Dez 2027
Sábado
Processo

Personalidade

Adaptabilidade (15) Ambição (12) Controvérsia (18) Lealdade (7) Pressão (10) Profissionalismo (7) Espírito Esportivo (8) Temperamento (14)

Perfil

Estilo de Treinamento Democrático
Licença Nacional B
Determinação 9
Gestão de Pessoas 14
Motivação 10
Disciplina 11
Satisfação no Trabalho
100%
Fadiga
0%
Função Olheiro-Chefe
Salário 76.4K p/s
Contrato 14.03.2030

Desempenho

Comportamento Bom
Eficácia do Treinamento
45%
Desenvolvimento do Jogador
35%
Prevenção de Lesões
65%
Implementação Tática
45%

Eventos Recentes

Recomendou um alvo de transferência agora
Recomendou um alvo de transferência agora
Recomendou um alvo de transferência agora
Recomendou um alvo de transferência agora
Recomendou um alvo de transferência agora
Participou de uma reunião de recrutamento agora
Avaliou um jogador agora
Apresentou um dossiê à direção agora

Monitorando agora

224
Jogador Clube Status Habilidade Confiança Observado Última observação Último voto
Negueba Mirassol Relatório pronto 129 / 123 69% 1 02.12.2027 -
Guillermo Varela Flamengo Perdido 121 / 121 69% 1 01.12.2027 -
Jonathan Dubasin Osasuna Negociando 145 / 150 40% 1 01.12.2027 -
Thierno Barry Watford Ativo 136 / 143 40% 1 01.12.2027 -
Santiago Giménez AC Milan Ativo 154 / 148 40% 1 01.12.2027 -
Gabriel Taliari Juventude Ativo 118 / 120 65% 1 05.07.2027 Aprovar
Francesco D'Alterio Ternana Ativo 100 / 107 40% 2 30.06.2027 -
Murphy Cooper Plymouth Argyle Ativo 114 / 122 40% 2 30.06.2027 -
Nathan Bishop AFC Wimbledon Ativo 102 / 108 40% 1 30.06.2027 -
Léo Scienza Southampton Ativo 150 / 143 40% 3 21.06.2027 -
Thiago Almada Fiorentina Ativo 140 / 155 40% 4 21.06.2027 -
Martinelli Palmeiras Ativo 138 / 140 66% 1 21.06.2027 Aprovar
Marcos Victor Bahia Ativo 114 / 120 65% 1 21.06.2027 Aprovar
Loum Tchaouna Coventry City Ativo 132 / 146 40% 1 21.06.2027 -
Dango Ouattara Brentford Ativo 142 / 144 40% 5 14.06.2027 -
Gianluca Scamacca Atalanta Ativo 161 / 155 40% 5 14.06.2027 -
Eddie Nketiah Crystal Palace Ativo 153 / 144 40% 1 14.06.2027 -
Brennan Johnson Everton Ativo 136 / 149 40% 2 01.06.2027 -
Yuri Alberto Corinthians Perdido 140 / 141 67% 1 01.06.2027 Aprovar
Paulinho Hamburger SV Ativo 140 / 140 68% 1 01.06.2027 Aprovar
Marcos Antonio Sport Recife Ativo 138 / 138 68% 1 01.06.2027 Aprovar
Joe Gelhardt Hull City Ativo 122 / 129 40% 2 31.05.2027 -
Zian Flemming Ipswich Town Ativo 131 / 125 40% 2 31.05.2027 -
João Félix Aston Villa Ativo 161 / 158 40% 1 31.05.2027 -
Dávid Strelec Middlesbrough Ativo 150 / 131 40% 4 30.05.2027 -
Igor Jesus Nottingham Forest Ativo 152 / 147 40% 6 28.05.2027 -
Oli McBurnie Hull City Ativo 128 / 138 40% 5 27.05.2027 -
Aune Heggebø West Bromwich Albion Ativo 134 / 121 40% 5 27.05.2027 -
Santiago Castro AS Roma Ativo 143 / 151 40% 2 27.05.2027 -
Lautaro Martínez Inter Ativo 170 / 175 40% 5 26.05.2027 -
Kevin Fulham Ativo 155 / 155 40% 1 26.05.2027 -
Ismaïla Sarr Crystal Palace Ativo 142 / 147 40% 5 24.05.2027 -
Tommy Conway Middlesbrough Ativo 122 / 123 40% 1 23.05.2027 -
Liam Delap Nottingham Forest Ativo 139 / 141 40% 2 22.05.2027 -
Anthony Patterson Wrexham Ativo 132 / 132 40% 3 20.05.2027 -
Radek Vítek Middlesbrough Ativo 131 / 141 40% 3 20.05.2027 -
Dominic Solanke Tottenham Ativo 150 / 146 40% 2 20.05.2027 -
Fathy Tarek Masr El Makasa Ativo 117 / 113 40% 1 20.05.2027 -
George Hirst Stoke City Ativo 144 / 137 40% 12 18.05.2027 -
Bento Lokomotiv Moscow Ativo 149 / 140 40% 10 17.05.2027 -
Luca Gemello Perugia Ativo 111 / 105 40% 2 17.05.2027 -
Thiago Brentford Ativo 149 / 150 40% 2 17.05.2027 -
Nicolas Jackson Aston Villa Ativo 143 / 146 40% 3 14.05.2027 -
Christian Pulisic AC Milan Ativo 156 / 155 40% 2 14.05.2027 -
Kevin Schade Brentford Ativo 161 / 153 40% 4 11.05.2027 -
Igor Burnley Ativo 142 / 135 40% 5 08.05.2027 -
Federico Chiesa Tottenham Ativo 146 / 161 40% 5 08.05.2027 -
Dodo Fiorentina Ativo 151 / 149 40% 2 08.05.2027 -
Bitello Empoli Ativo 146 / 138 40% 2 06.05.2027 -
Enzo Barrenechea Burnley Ativo 158 / 147 40% 1 06.05.2027 -
Mohammed Kudus Tottenham Ativo 148 / 159 40% 1 05.05.2027 -
Rodrigo Muniz Fulham Ativo 141 / 139 40% 1 05.05.2027 -
Koki Saito Queens Park Rangers Ativo 128 / 123 40% 1 02.05.2027 -
Marco Carnesecchi Torino Ativo 151 / 163 40% 1 01.05.2027 -
Williams Mahlangu SuperSport United Ativo 122 / 112 40% 1 01.05.2027 -
Arthur Beroe Ativo 111 / 116 40% 4 29.04.2027 -
Michael Cooper Sheffield United Ativo 140 / 124 40% 2 29.04.2027 -
Yousef Salech Cardiff City Ativo 116 / 124 40% 3 29.04.2027 -
Taiwo Awoniyi Coventry City Ativo 136 / 134 40% 2 29.04.2027 -
Fábio Carvalho Brentford Ativo 130 / 139 40% 1 26.04.2027 -
Khvicha Kvaratskhelia Inter Ativo 159 / 170 40% 2 25.04.2027 -
James Maddison Tottenham Ativo 157 / 162 40% 1 25.04.2027 -
Finn Azaz Southampton Ativo 143 / 121 40% 1 25.04.2027 -
Helinho Toluca Ativo 148 / 132 40% 1 21.04.2027 -
Jeon Jin-Woo Sheffield Wednesday Ativo 127 / 136 40% 1 20.04.2027 -
Rafael Leão Galatasaray Ativo 172 / 169 40% 1 18.04.2027 -
Tammy Abraham Aston Villa Ativo 140 / 143 40% 1 17.04.2027 -
Mateo Pellegrino Fiorentina Ativo 133 / 137 40% 5 16.04.2027 -
Leandro Trossard Besiktas Ativo 163 / 151 40% 8 15.04.2027 -
Julio Enciso Ipswich Town Ativo 146 / 145 40% 1 15.04.2027 -
Sorba Thomas Stoke City Ativo 123 / 133 40% 1 14.04.2027 -
Galeno Al-Ahli Ativo 143 / 145 40% 2 12.04.2027 -
John McGinn Aston Villa Ativo 156 / 145 40% 1 12.04.2027 -
Rodrigo De Paul Chelsea Ativo 163 / 148 40% 1 12.04.2027 -
Vitinho Internacional Ativo 136 / 132 40% 9 10.04.2027 -
Sam Surridge Leeds United Ativo 130 / 139 40% 1 09.04.2027 -
Keinan Davis Udinese Ativo 128 / 130 40% 1 09.04.2027 -
Hwang Hee-Chan Wolverhampton Ativo 141 / 129 40% 2 08.04.2027 -
Youssef En-Nesyri Al-Ittihad Ativo 134 / 147 40% 5 07.04.2027 -
Marquinhos Spartak Moscow Ativo 141 / 130 40% 3 07.04.2027 -
Pedrinho Shakhtar Ativo 136 / 141 40% 2 07.04.2027 -
Jack Rudoni Coventry City Ativo 140 / 140 40% 1 07.04.2027 -
Kostantis Tzolakis Hull City Ativo 155 / 151 40% 5 06.04.2027 -
Samuel Lino Flamengo Ativo 135 / 137 40% 7 06.04.2027 -
Solly March Brighton Ativo 149 / 148 40% 2 06.04.2027 -
Pablo Felipe West Ham United Ativo 135 / 134 40% 2 04.04.2027 -
Mads Hermansen West Ham United Ativo 140 / 136 40% 2 03.04.2027 -
Max Johnston Derby County Ativo 123 / 128 40% 1 02.04.2027 -
Serginho Al Wasl Ativo 118 / 137 40% 1 02.04.2027 -
Mateo Cassierra Atlético Mineiro Ativo 139 / 133 40% 6 31.03.2027 -
Yanis Begraoui Estoril Praia Ativo 145 / 130 40% 9 28.03.2027 -
Domagoj Drožđek Tractor Ativo 140 / 125 40% 3 28.03.2027 -
Rafik Guitane Estoril Praia Ativo 121 / 133 40% 1 28.03.2027 -
Francisco Moura Penafiel Ativo 132 / 136 40% 1 27.03.2027 -
Chuchu Ramírez Nacional Ativo 139 / 134 40% 6 25.03.2027 -
William Gomes Porto Ativo 140 / 155 40% 7 25.03.2027 -
João Palhinha Benfica Ativo 158 / 156 40% 3 22.03.2027 -
Mario Dorgeles Braga Ativo 132 / 144 40% 2 22.03.2027 -
Alexis Vega Famalicao Ativo 146 / 145 40% 9 20.03.2027 -
Nuno Santos Sporting CP Ativo 140 / 129 40% 3 19.03.2027 -
André Wolverhampton Ativo 140 / 145 40% 1 17.03.2027 -
Maximiliano Araújo Sporting CP Ativo 154 / 145 40% 2 15.03.2027 -
Alberto Costa Porto Ativo 151 / 141 40% 2 15.03.2027 -
Yoane Wissa Newcastle United Ativo 152 / 134 40% 2 13.03.2027 -
Georges-Kévin Nkoudou Al-Diriyah Ativo 124 / 124 40% 2 12.03.2027 -
Gabriel Silva Braga Ativo 131 / 137 40% 1 12.03.2027 -
Demarai Gray Birmingham Ativo 126 / 125 40% 1 12.03.2027 -
Dinis Pinto Moreirense Ativo 123 / 127 40% 2 11.03.2027 -
Christian Krasnodar Ativo 131 / 129 40% 6 06.03.2027 -
Gianluca Prestianni Benfica Ativo 131 / 133 40% 7 06.03.2027 -
Roberto Fernández Braga Ativo 146 / 148 40% 8 04.03.2027 -
Iqraam Rayners Mamelodi Sundowns Ativo 135 / 132 40% 2 04.03.2027 -
Arthur Cabral Botafogo Ativo 136 / 134 40% 4 02.03.2027 -
Lukas Jensen Millwall Ativo 121 / 127 40% 2 27.02.2027 -
Marquinhos APOEL Ativo 127 / 123 40% 1 25.02.2027 -
Jonas Wind Braga Ativo 145 / 137 40% 8 23.02.2027 -
Carlos Vinícius Grêmio Ativo 140 / 132 40% 6 21.02.2027 -
Tomáš Chorý Spartak Moscow Ativo 130 / 130 40% 2 21.02.2027 -
Steven Bergwijn Al-Ittihad Ativo 157 / 153 40% 3 18.02.2027 -
Ivan Toney Al-Ahli Ativo 159 / 142 40% 1 16.02.2027 -
Francis Amuzu Grêmio Ativo 140 / 123 40% 4 15.02.2027 -
Clayton Olympiacos Ativo 145 / 126 40% 1 08.02.2027 -
Juan Diego Castillo Vitoria Guimaraes Ativo 113 / 128 40% 4 07.02.2027 -
Josh Keeley Luton Town Ativo 117 / 131 40% 1 07.02.2027 -
Cezary Miszta Rio Ave Ativo 139 / 138 40% 3 01.02.2027 -
Fredrik Aursnes Benfica Ativo 145 / 141 40% 4 01.02.2027 -
Fran Vieites Exeter City Ativo 124 / 111 40% 1 01.02.2027 -
Enzo Loiodice KAA Gent Ativo 123 / 120 40% 3 29.01.2027 -
Jérémy Livolant Casa Pia Ativo 125 / 121 40% 1 26.01.2027 -
Nicolás Ibáñez Cruz Azul Ativo 121 / 138 40% 2 22.01.2027 -
Masoud Ebrahimi Sepahan Ativo 118 / 123 40% 1 21.01.2027 -
Diber Cambindo Leon Ativo 125 / 136 40% 1 14.01.2027 -
Kerem Aktürkoğlu Fenerbahce Ativo 135 / 146 40% 1 11.01.2027 -
Juan Dinenno Pumas UNAM Ativo 130 / 123 40% 1 09.01.2027 -
Rodrigo Castillo Fluminense Ativo 122 / 131 40% 2 08.01.2027 -
Ángel Correa River Plate Ativo 141 / 138 40% 4 29.12.2026 -
Luis Sinisterra Cruzeiro Ativo 140 / 142 40% 2 27.12.2026 -
Santi García Gil Vicente Ativo 122 / 130 40% 2 26.12.2026 -
Matheus Gonçalves Al-Ahli Ativo 127 / 129 40% 1 26.12.2026 -
Jhon Jhon Zenit Ativo 136 / 134 40% 3 22.12.2026 -
Tetê Grêmio Ativo 143 / 131 40% 2 22.12.2026 -
Luiz Araújo Flamengo Ativo 138 / 126 65% 1 21.12.2026 Aprovar
Cristian Medina Botafogo Ativo 122 / 136 40% 1 20.12.2026 -
Geny Sporting CP Ativo 132 / 152 40% 2 18.12.2026 -
Welington Southampton Ativo 118 / 130 40% 3 18.12.2026 -
Rodrigo Pinheiro Famalicao Ativo 138 / 125 40% 1 14.12.2026 -
Oussama Idrissi Ferencvaros Ativo 131 / 130 40% 1 30.11.2026 -
Hugo Souza Corinthians Ativo 141 / 133 40% 8 29.11.2026 -
Patrick Sequeira Casa Pia Ativo 116 / 118 40% 3 27.11.2026 -
Grégoire Coudert Burnley Ativo 118 / 128 40% 4 27.11.2026 -
Samuel Soares Benfica Ativo 125 / 136 40% 6 26.11.2026 -
Luís Henrique Inter Ativo 140 / 141 40% 1 26.11.2026 -
Bernardo Fontes Braga Ativo 125 / 123 40% 5 25.11.2026 -
Antonio Gomis Vizela Ativo 118 / 129 40% 6 25.11.2026 -
Jhon Arias Palmeiras Ativo 131 / 137 40% 1 24.11.2026 -
Christian Joel Sánchez Leiria Ativo 108 / 110 40% 1 22.11.2026 -
Felipe Zenobio Tigre Ativo 120 / 124 40% 3 21.11.2026 -
James Trafford Leeds United Ativo 132 / 145 40% 3 21.11.2026 -
Lautaro Amadé Defensa y Justicia Ativo 122 / 113 40% 2 21.11.2026 -
Jefferson Savarino Fluminense Ativo 131 / 136 40% 1 20.11.2026 Mais informações
Lazar Carević Famalicao Ativo 131 / 130 40% 6 15.11.2026 -
Thiago Couto São Paulo Ativo 120 / 118 40% 6 15.11.2026 -
Andrew Flamengo Ativo 133 / 126 40% 5 14.11.2026 -
Đorđe Petrović Bournemouth Ativo 139 / 142 40% 1 14.11.2026 -
Alan Velasco Boca Juniors Ativo 127 / 129 40% 1 14.11.2026 -
Nicolás Sumavil Platense Ativo 123 / 118 40% 5 10.11.2026 -
Adriel Torreense Ativo 121 / 120 40% 6 08.11.2026 -
Gérson Cruzeiro Ativo 133 / 142 40% 1 06.11.2026 -
Evander FC Cincinnati Ativo 136 / 131 40% 1 03.11.2026 -
Matheus Mendes Alverca Ativo 118 / 121 40% 4 01.11.2026 -
Gabriel Brazão Santos Ativo 132 / 138 40% 7 29.10.2026 -
Felipe Parra Stade Brestois Ativo 115 / 119 40% 3 29.10.2026 -
Dodi Lukébakio Benfica Ativo 151 / 140 40% 2 28.10.2026 -
Everton Cebolinha Farense Ativo 117 / 121 40% 2 28.10.2026 -
Mauro Júnior PSV Ativo 154 / 144 40% 1 28.10.2026 -
Brandon Austin Feyenoord Ativo 122 / 131 40% 1 25.10.2026 -
Ennio van der Gouw Rio Ave Ativo 111 / 111 40% 2 24.10.2026 -
Alfonso Pastor Maritimo Ativo 99 / 113 40% 2 23.10.2026 -
Gonzalo Crettaz NEC Ativo 120 / 133 40% 1 23.10.2026 -
Talles Magno New York City Ativo 133 / 139 40% 3 22.10.2026 -
Matías Contrera Northampton Town Ativo 110 / 107 40% 2 22.10.2026 -
Mathis Jangeal Famalicao Ativo 99 / 105 40% 1 22.10.2026 -
Léo Jacó Santa Clara Ativo 97 / 95 40% 1 19.10.2026 -
Gustavo Silva Vitoria Guimaraes Ativo 137 / 121 40% 1 17.10.2026 -
Pablo Fernández Leiria Ativo 100 / 112 40% 1 17.10.2026 -
Dilan Godoy Vélez Ativo 108 / 123 40% 2 16.10.2026 -
Agustín Ruberto River Plate Ativo 111 / 131 40% 2 15.10.2026 -
Mathys Tel Stade Rennais Ativo 149 / 139 40% 1 15.10.2026 -
Mauro Silveira Junior Ativo 121 / 114 40% 3 10.10.2026 -
Carl Rushworth Coventry City Perdido 140 / 133 40% 3 07.10.2026 -
Iván Angulo Orlando City Ativo 117 / 122 40% 1 05.10.2026 -
Neymar Santos Ativo 138 / 151 40% 1 01.10.2026 -
Figueiredo Alverca Ativo 116 / 130 40% 1 01.10.2026 -
Heung-Min Son Los Angeles Football Club Ativo 148 / 146 40% 1 30.09.2026 -
Hamilton Ativo 107 / 104 40% 1 30.09.2026 -
Juan Muñoz Leiria Ativo 127 / 118 40% 1 29.09.2026 -
Tiago Silva Oliveirense Ativo 97 / 118 40% 4 27.09.2026 -
Tomás Durso Atlético Tucumán Ativo 117 / 125 40% 1 24.09.2026 -
Matías Fernández-Pardo Newcastle United Ativo 149 / 148 40% 1 23.09.2026 -
Deivid Washington RC Strasbourg Ativo 102 / 126 40% 1 23.09.2026 -
Evidence Billiat Ajax Cape Town Ativo 110 / 104 40% 1 23.09.2026 -
Sebastián Meza Huracán Ativo 124 / 124 40% 1 22.09.2026 -
Victor Froholdt Porto Ativo 136 / 149 40% 1 20.09.2026 -
Matheus Nascimento Houston Dynamo Ativo 127 / 115 40% 1 18.09.2026 -
Jair Silva Leiria Ativo 99 / 116 40% 1 18.09.2026 -
Carlos Miguel Palmeiras Ativo 130 / 127 40% 1 16.09.2026 -
João Valido Chaves Ativo 97 / 100 40% 3 11.09.2026 -
Yuri Tanque Criciuma Ativo 120 / 119 40% 1 11.09.2026 -
Rafael Navarro St. Louis CITY SC Ativo 139 / 122 40% 2 09.09.2026 -
Luis Suárez PSV Ativo 164 / 163 40% 2 07.09.2026 -
Sindre Walle Egeli Nottingham Forest Ativo 133 / 136 40% 1 07.09.2026 -
Luciano Jachfe Nueva Chicago Ativo 113 / 113 40% 4 04.09.2026 -
Luka Gavran Toronto FC Ativo 106 / 106 40% 1 03.09.2026 -
Esteban Glellel Quilmes Ativo 114 / 110 40% 1 02.09.2026 -
Juan Moreno La Luz Ativo 115 / 119 40% 2 01.09.2026 -
Enzo Vázquez Central Norte Ativo 116 / 104 40% 1 01.09.2026 -
João Gonçalves Coventry City Ativo 98 / 100 40% 1 30.08.2026 -
Lucão Gil Vicente Ativo 104 / 125 40% 3 17.08.2026 -
Federico Losas Chacarita Juniors Ativo 104 / 108 40% 1 10.08.2026 -
João Klauss LA Galaxy Ativo 126 / 131 40% 1 08.08.2026 -
Emersonn Ipswich Town Ativo 116 / 119 40% 1 08.08.2026 -
Guilherme Houston Dynamo Ativo 114 / 132 40% 1 08.08.2026 -
João Muniz Sporting CP Ativo 103 / 112 40% 1 03.08.2026 -
Lautaro Maldonado Instituto Ativo 116 / 107 40% 1 01.08.2026 -